sensor_id;sensor_type;location;lat;lon;timestamp;P1;durP1;ratioP1;P2;durP2;ratioP2
32096;SDS011;18610;49.916;8.284;2023-02-28T00:00:49;3.53;;;2.00;;
32096;SDS011;18610;49.916;8.284;2023-02-28T00:03:16;4.95;;;1.67;;
32096;SDS011;18610;49.916;8.284;2023-02-28T00:05:42;4.88;;;1.75;;
32096;SDS011;18610;49.916;8.284;2023-02-28T00:08:09;4.82;;;1.88;;
32096;SDS011;18610;49.916;8.284;2023-02-28T00:10:36;2.38;;;1.85;;
32096;SDS011;18610;49.916;8.284;2023-02-28T00:13:04;6.72;;;2.13;;
32096;SDS011;18610;49.916;8.284;2023-02-28T00:15:33;3.90;;;1.80;;
32096;SDS011;18610;49.916;8.284;2023-02-28T00:18:01;5.13;;;2.15;;
32096;SDS011;18610;49.916;8.284;2023-02-28T00:20:28;3.30;;;1.92;;
32096;SDS011;18610;49.916;8.284;2023-02-28T00:22:55;3.22;;;2.00;;
32096;SDS011;18610;49.916;8.284;2023-02-28T00:25:23;3.13;;;2.15;;
32096;SDS011;18610;49.916;8.284;2023-02-28T00:27:50;4.93;;;2.15;;
32096;SDS011;18610;49.916;8.284;2023-02-28T00:30:18;4.53;;;2.10;;
32096;SDS011;18610;49.916;8.284;2023-02-28T00:32:48;5.72;;;1.75;;
32096;SDS011;18610;49.916;8.284;2023-02-28T00:35:15;7.18;;;2.20;;
32096;SDS011;18610;49.916;8.284;2023-02-28T00:37:42;4.60;;;2.20;;
32096;SDS011;18610;49.916;8.284;2023-02-28T00:40:09;3.25;;;1.95;;
32096;SDS011;18610;49.916;8.284;2023-02-28T00:42:37;7.45;;;2.08;;
32096;SDS011;18610;49.916;8.284;2023-02-28T00:45:05;4.60;;;2.40;;
32096;SDS011;18610;49.916;8.284;2023-02-28T00:47:33;4.78;;;2.17;;
32096;SDS011;18610;49.916;8.284;2023-02-28T00:50:01;3.40;;;2.05;;
32096;SDS011;18610;49.916;8.284;2023-02-28T00:52:28;2.42;;;2.22;;
32096;SDS011;18610;49.916;8.284;2023-02-28T00:54:54;2.67;;;1.90;;
32096;SDS011;18610;49.916;8.284;2023-02-28T00:57:21;2.38;;;1.50;;
32096;SDS011;18610;49.916;8.284;2023-02-28T00:59:48;6.28;;;2.08;;
32096;SDS011;18610;49.916;8.284;2023-02-28T01:02:15;4.45;;;1.92;;
32096;SDS011;18610;49.916;8.284;2023-02-28T01:04:43;2.95;;;1.90;;
32096;SDS011;18610;49.916;8.284;2023-02-28T01:07:11;3.72;;;2.05;;
32096;SDS011;18610;49.916;8.284;2023-02-28T01:09:39;2.72;;;1.70;;
32096;SDS011;18610;49.916;8.284;2023-02-28T01:12:06;4.15;;;1.90;;
32096;SDS011;18610;49.916;8.284;2023-02-28T01:14:34;6.70;;;2.10;;
32096;SDS011;18610;49.916;8.284;2023-02-28T01:17:01;6.32;;;3.50;;
32096;SDS011;18610;49.916;8.284;2023-02-28T01:19:28;2.70;;;2.20;;
32096;SDS011;18610;49.916;8.284;2023-02-28T01:21:54;3.25;;;1.98;;
32096;SDS011;18610;49.916;8.284;2023-02-28T01:24:22;7.10;;;2.47;;
32096;SDS011;18610;49.916;8.284;2023-02-28T01:26:49;3.38;;;2.00;;
32096;SDS011;18610;49.916;8.284;2023-02-28T01:29:16;5.95;;;2.40;;
32096;SDS011;18610;49.916;8.284;2023-02-28T01:31:42;3.92;;;2.35;;
32096;SDS011;18610;49.916;8.284;2023-02-28T01:34:09;3.75;;;2.13;;
32096;SDS011;18610;49.916;8.284;2023-02-28T01:36:36;3.75;;;1.73;;
32096;SDS011;18610;49.916;8.284;2023-02-28T01:39:02;6.72;;;2.55;;
32096;SDS011;18610;49.916;8.284;2023-02-28T01:41:31;9.35;;;2.53;;
32096;SDS011;18610;49.916;8.284;2023-02-28T01:44:02;3.95;;;2.30;;
32096;SDS011;18610;49.916;8.284;2023-02-28T01:46:31;8.27;;;2.53;;
32096;SDS011;18610;49.916;8.284;2023-02-28T01:49:00;4.25;;;2.55;;
32096;SDS011;18610;49.916;8.284;2023-02-28T01:51:32;6.65;;;2.50;;
32096;SDS011;18610;49.916;8.284;2023-02-28T01:54:05;5.72;;;2.78;;
32096;SDS011;18610;49.916;8.284;2023-02-28T01:56:40;5.25;;;2.92;;
32096;SDS011;18610;49.916;8.284;2023-02-28T01:59:10;5.38;;;3.22;;
32096;SDS011;18610;49.916;8.284;2023-02-28T02:01:40;6.28;;;3.10;;
32096;SDS011;18610;49.916;8.284;2023-02-28T02:04:07;5.55;;;3.22;;
32096;SDS011;18610;49.916;8.284;2023-02-28T02:06:34;7.65;;;3.05;;
32096;SDS011;18610;49.916;8.284;2023-02-28T02:09:04;5.35;;;3.08;;
32096;SDS011;18610;49.916;8.284;2023-02-28T02:11:31;7.57;;;3.80;;
32096;SDS011;18610;49.916;8.284;2023-02-28T02:14:06;5.63;;;3.30;;
32096;SDS011;18610;49.916;8.284;2023-02-28T02:16:44;6.95;;;3.47;;
32096;SDS011;18610;49.916;8.284;2023-02-28T02:22:36;6.32;;;3.17;;
32096;SDS011;18610;49.916;8.284;2023-02-28T02:25:16;7.10;;;4.10;;
32096;SDS011;18610;49.916;8.284;2023-02-28T02:28:13;6.93;;;3.88;;
32096;SDS011;18610;49.916;8.284;2023-02-28T02:30:58;7.00;;;3.92;;
32096;SDS011;18610;49.916;8.284;2023-02-28T02:36:19;8.23;;;4.05;;
32096;SDS011;18610;49.916;8.284;2023-02-28T02:38:50;5.90;;;3.67;;
32096;SDS011;18610;49.916;8.284;2023-02-28T02:41:23;11.77;;;4.28;;
32096;SDS011;18610;49.916;8.284;2023-02-28T02:43:55;7.13;;;4.30;;
32096;SDS011;18610;49.916;8.284;2023-02-28T02:46:26;10.57;;;4.63;;
32096;SDS011;18610;49.916;8.284;2023-02-28T02:48:56;5.43;;;4.13;;
32096;SDS011;18610;49.916;8.284;2023-02-28T02:51:27;6.63;;;4.63;;
32096;SDS011;18610;49.916;8.284;2023-02-28T02:53:57;6.32;;;4.25;;
32096;SDS011;18610;49.916;8.284;2023-02-28T02:56:28;5.82;;;3.88;;
32096;SDS011;18610;49.916;8.284;2023-02-28T02:58:58;6.78;;;4.28;;
32096;SDS011;18610;49.916;8.284;2023-02-28T03:01:28;10.02;;;4.00;;
32096;SDS011;18610;49.916;8.284;2023-02-28T03:03:58;6.65;;;4.60;;
32096;SDS011;18610;49.916;8.284;2023-02-28T03:06:28;6.47;;;4.38;;
32096;SDS011;18610;49.916;8.284;2023-02-28T03:08:55;10.82;;;4.35;;
32096;SDS011;18610;49.916;8.284;2023-02-28T03:11:22;10.52;;;4.45;;
32096;SDS011;18610;49.916;8.284;2023-02-28T03:13:52;7.88;;;4.95;;
32096;SDS011;18610;49.916;8.284;2023-02-28T03:16:34;6.55;;;5.05;;
32096;SDS011;18610;49.916;8.284;2023-02-28T03:19:04;8.00;;;5.15;;
32096;SDS011;18610;49.916;8.284;2023-02-28T03:21:50;9.38;;;5.72;;
32096;SDS011;18610;49.916;8.284;2023-02-28T03:24:25;8.68;;;5.20;;
32096;SDS011;18610;49.916;8.284;2023-02-28T03:26:57;8.57;;;5.13;;
32096;SDS011;18610;49.916;8.284;2023-02-28T03:29:32;9.73;;;5.70;;
32096;SDS011;18610;49.916;8.284;2023-02-28T03:32:03;9.27;;;5.40;;
32096;SDS011;18610;49.916;8.284;2023-02-28T03:34:37;11.88;;;5.22;;
32096;SDS011;18610;49.916;8.284;2023-02-28T03:37:07;9.75;;;5.60;;
32096;SDS011;18610;49.916;8.284;2023-02-28T03:39:39;9.43;;;4.93;;
32096;SDS011;18610;49.916;8.284;2023-02-28T03:42:09;7.47;;;5.13;;
32096;SDS011;18610;49.916;8.284;2023-02-28T03:44:40;10.65;;;5.18;;
32096;SDS011;18610;49.916;8.284;2023-02-28T03:47:10;5.90;;;4.50;;
32096;SDS011;18610;49.916;8.284;2023-02-28T03:49:42;13.77;;;5.80;;
32096;SDS011;18610;49.916;8.284;2023-02-28T03:52:15;8.88;;;4.72;;
32096;SDS011;18610;49.916;8.284;2023-02-28T03:54:45;7.28;;;4.70;;
32096;SDS011;18610;49.916;8.284;2023-02-28T03:57:15;7.95;;;5.35;;
32096;SDS011;18610;49.916;8.284;2023-02-28T03:59:49;7.35;;;4.32;;
32096;SDS011;18610;49.916;8.284;2023-02-28T04:02:20;5.63;;;4.43;;
32096;SDS011;18610;49.916;8.284;2023-02-28T04:04:47;9.73;;;5.05;;
32096;SDS011;18610;49.916;8.284;2023-02-28T04:07:17;10.40;;;5.53;;
32096;SDS011;18610;49.916;8.284;2023-02-28T04:09:44;9.35;;;4.38;;
32096;SDS011;18610;49.916;8.284;2023-02-28T04:12:10;14.20;;;4.32;;
32096;SDS011;18610;49.916;8.284;2023-02-28T04:14:37;10.68;;;5.32;;
32096;SDS011;18610;49.916;8.284;2023-02-28T04:17:04;8.20;;;5.05;;
32096;SDS011;18610;49.916;8.284;2023-02-28T04:19:30;8.40;;;5.10;;
32096;SDS011;18610;49.916;8.284;2023-02-28T04:21:57;9.57;;;4.97;;
32096;SDS011;18610;49.916;8.284;2023-02-28T04:24:26;7.53;;;4.53;;
32096;SDS011;18610;49.916;8.284;2023-02-28T04:26:54;9.90;;;4.97;;
32096;SDS011;18610;49.916;8.284;2023-02-28T04:29:23;10.25;;;4.95;;
32096;SDS011;18610;49.916;8.284;2023-02-28T04:31:51;9.45;;;4.20;;
32096;SDS011;18610;49.916;8.284;2023-02-28T04:34:19;8.10;;;4.43;;
32096;SDS011;18610;49.916;8.284;2023-02-28T04:36:46;10.00;;;4.68;;
32096;SDS011;18610;49.916;8.284;2023-02-28T04:39:14;12.57;;;4.95;;
32096;SDS011;18610;49.916;8.284;2023-02-28T04:41:42;5.85;;;4.03;;
32096;SDS011;18610;49.916;8.284;2023-02-28T04:44:08;15.90;;;5.28;;
32096;SDS011;18610;49.916;8.284;2023-02-28T04:46:35;9.82;;;4.60;;
32096;SDS011;18610;49.916;8.284;2023-02-28T04:49:02;9.35;;;5.28;;
32096;SDS011;18610;49.916;8.284;2023-02-28T04:51:29;8.73;;;5.18;;
32096;SDS011;18610;49.916;8.284;2023-02-28T04:53:56;6.95;;;4.50;;
32096;SDS011;18610;49.916;8.284;2023-02-28T04:56:23;6.68;;;4.47;;
32096;SDS011;18610;49.916;8.284;2023-02-28T04:58:51;10.27;;;4.38;;
32096;SDS011;18610;49.916;8.284;2023-02-28T05:01:20;8.05;;;5.57;;
32096;SDS011;18610;49.916;8.284;2023-02-28T05:03:49;8.60;;;4.30;;
32096;SDS011;18610;49.916;8.284;2023-02-28T05:06:16;11.38;;;5.20;;
32096;SDS011;18610;49.916;8.284;2023-02-28T05:08:43;7.68;;;4.45;;
32096;SDS011;18610;49.916;8.284;2023-02-28T05:11:13;7.95;;;5.18;;
32096;SDS011;18610;49.916;8.284;2023-02-28T05:13:42;10.18;;;5.13;;
32096;SDS011;18610;49.916;8.284;2023-02-28T05:16:10;7.82;;;4.57;;
32096;SDS011;18610;49.916;8.284;2023-02-28T05:18:37;7.10;;;4.65;;
32096;SDS011;18610;49.916;8.284;2023-02-28T05:21:04;8.38;;;4.25;;
32096;SDS011;18610;49.916;8.284;2023-02-28T05:23:31;10.80;;;5.57;;
32096;SDS011;18610;49.916;8.284;2023-02-28T05:25:58;7.88;;;4.65;;
32096;SDS011;18610;49.916;8.284;2023-02-28T05:28:25;7.72;;;5.07;;
32096;SDS011;18610;49.916;8.284;2023-02-28T05:30:51;7.70;;;4.72;;
32096;SDS011;18610;49.916;8.284;2023-02-28T05:33:19;7.50;;;4.45;;
32096;SDS011;18610;49.916;8.284;2023-02-28T05:35:46;8.93;;;5.72;;
32096;SDS011;18610;49.916;8.284;2023-02-28T05:38:13;9.25;;;4.63;;
32096;SDS011;18610;49.916;8.284;2023-02-28T05:40:39;12.60;;;5.38;;
32096;SDS011;18610;49.916;8.284;2023-02-28T05:43:07;10.27;;;5.07;;
32096;SDS011;18610;49.916;8.284;2023-02-28T05:45:36;8.10;;;4.93;;
32096;SDS011;18610;49.916;8.284;2023-02-28T05:48:03;8.45;;;4.93;;
32096;SDS011;18610;49.916;8.284;2023-02-28T05:50:31;8.60;;;4.43;;
32096;SDS011;18610;49.916;8.284;2023-02-28T05:52:58;8.05;;;4.32;;
32096;SDS011;18610;49.916;8.284;2023-02-28T05:55:25;7.63;;;5.20;;
32096;SDS011;18610;49.916;8.284;2023-02-28T05:57:52;8.48;;;4.68;;
32096;SDS011;18610;49.916;8.284;2023-02-28T06:00:19;7.90;;;4.20;;
32096;SDS011;18610;49.916;8.284;2023-02-28T06:02:46;10.25;;;5.25;;
32096;SDS011;18610;49.916;8.284;2023-02-28T06:05:13;6.80;;;4.35;;
32096;SDS011;18610;49.916;8.284;2023-02-28T06:07:43;6.88;;;4.68;;
32096;SDS011;18610;49.916;8.284;2023-02-28T06:10:10;8.52;;;4.88;;
32096;SDS011;18610;49.916;8.284;2023-02-28T06:12:38;9.90;;;5.20;;
32096;SDS011;18610;49.916;8.284;2023-02-28T06:15:06;7.78;;;4.45;;
32096;SDS011;18610;49.916;8.284;2023-02-28T06:17:34;7.10;;;5.30;;
32096;SDS011;18610;49.916;8.284;2023-02-28T06:20:00;6.90;;;5.25;;
32096;SDS011;18610;49.916;8.284;2023-02-28T06:22:27;9.25;;;5.00;;
32096;SDS011;18610;49.916;8.284;2023-02-28T06:24:55;8.10;;;4.60;;
32096;SDS011;18610;49.916;8.284;2023-02-28T06:27:22;10.07;;;5.25;;
32096;SDS011;18610;49.916;8.284;2023-02-28T06:29:53;13.60;;;5.32;;
32096;SDS011;18610;49.916;8.284;2023-02-28T06:32:20;9.93;;;5.05;;
32096;SDS011;18610;49.916;8.284;2023-02-28T06:34:47;12.60;;;5.05;;
32096;SDS011;18610;49.916;8.284;2023-02-28T06:37:15;10.10;;;4.72;;
32096;SDS011;18610;49.916;8.284;2023-02-28T06:39:42;9.05;;;4.75;;
32096;SDS011;18610;49.916;8.284;2023-02-28T06:42:10;7.68;;;4.78;;
32096;SDS011;18610;49.916;8.284;2023-02-28T06:44:37;9.55;;;4.40;;
32096;SDS011;18610;49.916;8.284;2023-02-28T06:47:05;6.40;;;4.68;;
32096;SDS011;18610;49.916;8.284;2023-02-28T06:49:33;12.80;;;5.38;;
32096;SDS011;18610;49.916;8.284;2023-02-28T06:52:01;20.55;;;9.38;;
32096;SDS011;18610;49.916;8.284;2023-02-28T06:54:28;20.52;;;8.40;;
32096;SDS011;18610;49.916;8.284;2023-02-28T06:56:55;17.33;;;8.52;;
32096;SDS011;18610;49.916;8.284;2023-02-28T06:59:24;17.08;;;7.57;;
32096;SDS011;18610;49.916;8.284;2023-02-28T07:01:51;7.85;;;4.65;;
32096;SDS011;18610;49.916;8.284;2023-02-28T07:04:18;12.32;;;4.90;;
32096;SDS011;18610;49.916;8.284;2023-02-28T07:06:44;18.40;;;4.75;;
32096;SDS011;18610;49.916;8.284;2023-02-28T07:09:11;9.57;;;4.53;;
32096;SDS011;18610;49.916;8.284;2023-02-28T07:11:39;14.70;;;4.80;;
32096;SDS011;18610;49.916;8.284;2023-02-28T07:14:07;15.00;;;5.70;;
32096;SDS011;18610;49.916;8.284;2023-02-28T07:16:36;12.88;;;4.70;;
32096;SDS011;18610;49.916;8.284;2023-02-28T07:19:02;9.70;;;4.15;;
32096;SDS011;18610;49.916;8.284;2023-02-28T07:21:29;8.40;;;3.63;;
32096;SDS011;18610;49.916;8.284;2023-02-28T07:23:56;6.43;;;3.67;;
32096;SDS011;18610;49.916;8.284;2023-02-28T07:26:22;10.55;;;3.95;;
32096;SDS011;18610;49.916;8.284;2023-02-28T07:28:49;8.18;;;3.85;;
32096;SDS011;18610;49.916;8.284;2023-02-28T07:31:16;9.65;;;3.90;;
32096;SDS011;18610;49.916;8.284;2023-02-28T07:33:45;5.30;;;3.05;;
32096;SDS011;18610;49.916;8.284;2023-02-28T07:36:13;7.70;;;3.97;;
32096;SDS011;18610;49.916;8.284;2023-02-28T07:38:40;8.27;;;3.83;;
32096;SDS011;18610;49.916;8.284;2023-02-28T07:41:07;7.15;;;4.05;;
32096;SDS011;18610;49.916;8.284;2023-02-28T07:43:34;9.88;;;4.50;;
32096;SDS011;18610;49.916;8.284;2023-02-28T07:46:02;6.57;;;3.47;;
32096;SDS011;18610;49.916;8.284;2023-02-28T07:48:29;11.80;;;4.25;;
32096;SDS011;18610;49.916;8.284;2023-02-28T07:50:58;8.48;;;3.75;;
32096;SDS011;18610;49.916;8.284;2023-02-28T07:53:25;8.73;;;3.25;;
32096;SDS011;18610;49.916;8.284;2023-02-28T07:55:54;9.43;;;3.45;;
32096;SDS011;18610;49.916;8.284;2023-02-28T07:58:21;11.13;;;3.83;;
32096;SDS011;18610;49.916;8.284;2023-02-28T08:00:48;7.88;;;3.53;;
32096;SDS011;18610;49.916;8.284;2023-02-28T08:03:15;10.40;;;3.67;;
32096;SDS011;18610;49.916;8.284;2023-02-28T08:05:43;7.00;;;3.63;;
32096;SDS011;18610;49.916;8.284;2023-02-28T08:08:11;6.50;;;3.60;;
32096;SDS011;18610;49.916;8.284;2023-02-28T08:10:37;7.45;;;4.57;;
32096;SDS011;18610;49.916;8.284;2023-02-28T08:13:04;6.40;;;4.03;;
32096;SDS011;18610;49.916;8.284;2023-02-28T08:15:31;6.55;;;3.65;;
32096;SDS011;18610;49.916;8.284;2023-02-28T08:17:58;8.52;;;4.05;;
32096;SDS011;18610;49.916;8.284;2023-02-28T08:20:25;8.25;;;3.72;;
32096;SDS011;18610;49.916;8.284;2023-02-28T08:22:52;8.63;;;3.47;;
32096;SDS011;18610;49.916;8.284;2023-02-28T08:25:20;8.77;;;4.10;;
32096;SDS011;18610;49.916;8.284;2023-02-28T08:27:47;8.38;;;3.90;;
32096;SDS011;18610;49.916;8.284;2023-02-28T08:30:16;8.27;;;3.92;;
32096;SDS011;18610;49.916;8.284;2023-02-28T08:32:42;19.77;;;4.20;;
32096;SDS011;18610;49.916;8.284;2023-02-28T08:35:09;10.27;;;3.72;;
32096;SDS011;18610;49.916;8.284;2023-02-28T08:37:36;6.70;;;3.85;;
32096;SDS011;18610;49.916;8.284;2023-02-28T08:40:03;14.52;;;4.45;;
32096;SDS011;18610;49.916;8.284;2023-02-28T08:42:32;10.13;;;3.53;;
32096;SDS011;18610;49.916;8.284;2023-02-28T08:44:59;10.55;;;4.32;;
32096;SDS011;18610;49.916;8.284;2023-02-28T08:47:26;11.68;;;3.97;;
32096;SDS011;18610;49.916;8.284;2023-02-28T08:49:53;7.65;;;3.53;;
32096;SDS011;18610;49.916;8.284;2023-02-28T08:52:19;7.13;;;3.75;;
32096;SDS011;18610;49.916;8.284;2023-02-28T08:54:46;8.57;;;2.90;;
32096;SDS011;18610;49.916;8.284;2023-02-28T08:57:13;5.22;;;2.85;;
32096;SDS011;18610;49.916;8.284;2023-02-28T08:59:41;6.75;;;3.20;;
32096;SDS011;18610;49.916;8.284;2023-02-28T09:02:08;8.55;;;3.72;;
32096;SDS011;18610;49.916;8.284;2023-02-28T09:04:37;5.43;;;2.95;;
32096;SDS011;18610;49.916;8.284;2023-02-28T09:07:04;6.68;;;3.67;;
32096;SDS011;18610;49.916;8.284;2023-02-28T09:09:31;7.60;;;3.80;;
32096;SDS011;18610;49.916;8.284;2023-02-28T09:11:58;8.90;;;3.88;;
32096;SDS011;18610;49.916;8.284;2023-02-28T09:14:24;8.43;;;3.55;;
32096;SDS011;18610;49.916;8.284;2023-02-28T09:16:52;4.53;;;3.33;;
32096;SDS011;18610;49.916;8.284;2023-02-28T09:19:19;6.10;;;3.53;;
32096;SDS011;18610;49.916;8.284;2023-02-28T09:21:47;5.45;;;3.58;;
32096;SDS011;18610;49.916;8.284;2023-02-28T09:24:13;7.75;;;3.80;;
32096;SDS011;18610;49.916;8.284;2023-02-28T09:26:40;9.13;;;3.15;;
32096;SDS011;18610;49.916;8.284;2023-02-28T09:29:07;4.80;;;3.28;;
32096;SDS011;18610;49.916;8.284;2023-02-28T09:31:33;6.32;;;3.50;;
32096;SDS011;18610;49.916;8.284;2023-02-28T09:34:01;11.52;;;3.83;;
32096;SDS011;18610;49.916;8.284;2023-02-28T09:36:29;4.95;;;3.50;;
32096;SDS011;18610;49.916;8.284;2023-02-28T09:38:58;7.68;;;3.60;;
32096;SDS011;18610;49.916;8.284;2023-02-28T09:41:25;4.95;;;3.10;;
32096;SDS011;18610;49.916;8.284;2023-02-28T09:43:56;5.60;;;3.05;;
32096;SDS011;18610;49.916;8.284;2023-02-28T09:46:27;6.90;;;3.10;;
32096;SDS011;18610;49.916;8.284;2023-02-28T09:48:57;5.17;;;2.80;;
32096;SDS011;18610;49.916;8.284;2023-02-28T09:51:43;10.52;;;4.05;;
32096;SDS011;18610;49.916;8.284;2023-02-28T09:54:17;7.60;;;3.67;;
32096;SDS011;18610;49.916;8.284;2023-02-28T09:56:45;7.82;;;3.50;;
32096;SDS011;18610;49.916;8.284;2023-02-28T09:59:20;4.88;;;3.47;;
32096;SDS011;18610;49.916;8.284;2023-02-28T10:01:58;5.72;;;3.05;;
32096;SDS011;18610;49.916;8.284;2023-02-28T10:04:36;5.40;;;3.58;;
32096;SDS011;18610;49.916;8.284;2023-02-28T10:07:16;6.75;;;3.47;;
32096;SDS011;18610;49.916;8.284;2023-02-28T10:09:51;5.07;;;3.67;;
32096;SDS011;18610;49.916;8.284;2023-02-28T10:12:21;8.30;;;3.75;;
32096;SDS011;18610;49.916;8.284;2023-02-28T10:14:49;8.43;;;3.83;;
32096;SDS011;18610;49.916;8.284;2023-02-28T10:17:19;5.85;;;3.47;;
32096;SDS011;18610;49.916;8.284;2023-02-28T10:19:52;9.65;;;3.65;;
32096;SDS011;18610;49.916;8.284;2023-02-28T10:22:27;7.10;;;3.53;;
32096;SDS011;18610;49.916;8.284;2023-02-28T10:25:00;6.72;;;2.92;;
32096;SDS011;18610;49.916;8.284;2023-02-28T10:27:28;8.73;;;4.85;;
32096;SDS011;18610;49.916;8.284;2023-02-28T10:29:58;8.80;;;3.75;;
32096;SDS011;18610;49.916;8.284;2023-02-28T10:32:26;6.28;;;4.05;;
32096;SDS011;18610;49.916;8.284;2023-02-28T10:34:57;10.10;;;3.65;;
32096;SDS011;18610;49.916;8.284;2023-02-28T10:37:28;6.80;;;3.85;;
32096;SDS011;18610;49.916;8.284;2023-02-28T10:39:56;9.00;;;4.22;;
32096;SDS011;18610;49.916;8.284;2023-02-28T10:42:24;7.75;;;4.05;;
32096;SDS011;18610;49.916;8.284;2023-02-28T10:45:10;8.85;;;3.65;;
32096;SDS011;18610;49.916;8.284;2023-02-28T10:47:41;8.13;;;3.78;;
32096;SDS011;18610;49.916;8.284;2023-02-28T10:50:27;12.57;;;4.15;;
32096;SDS011;18610;49.916;8.284;2023-02-28T10:53:07;8.10;;;3.88;;
32096;SDS011;18610;49.916;8.284;2023-02-28T10:55:55;7.15;;;3.90;;
32096;SDS011;18610;49.916;8.284;2023-02-28T10:58:24;9.00;;;3.65;;
32096;SDS011;18610;49.916;8.284;2023-02-28T11:00:53;6.95;;;3.83;;
32096;SDS011;18610;49.916;8.284;2023-02-28T11:03:23;7.55;;;3.30;;
32096;SDS011;18610;49.916;8.284;2023-02-28T11:05:54;6.85;;;3.70;;
32096;SDS011;18610;49.916;8.284;2023-02-28T11:08:22;7.50;;;4.05;;
32096;SDS011;18610;49.916;8.284;2023-02-28T11:10:53;6.32;;;4.00;;
32096;SDS011;18610;49.916;8.284;2023-02-28T11:13:32;6.35;;;3.70;;
32096;SDS011;18610;49.916;8.284;2023-02-28T11:16:00;9.18;;;3.80;;
32096;SDS011;18610;49.916;8.284;2023-02-28T11:18:30;7.07;;;3.97;;
32096;SDS011;18610;49.916;8.284;2023-02-28T11:21:04;7.90;;;3.97;;
32096;SDS011;18610;49.916;8.284;2023-02-28T11:23:33;8.02;;;4.13;;
32096;SDS011;18610;49.916;8.284;2023-02-28T11:26:02;7.18;;;3.38;;
32096;SDS011;18610;49.916;8.284;2023-02-28T11:28:35;9.13;;;4.43;;
32096;SDS011;18610;49.916;8.284;2023-02-28T11:31:04;6.10;;;3.90;;
32096;SDS011;18610;49.916;8.284;2023-02-28T11:33:41;12.68;;;4.30;;
32096;SDS011;18610;49.916;8.284;2023-02-28T11:36:11;14.05;;;4.45;;
32096;SDS011;18610;49.916;8.284;2023-02-28T11:38:40;7.70;;;3.47;;
32096;SDS011;18610;49.916;8.284;2023-02-28T11:41:13;7.40;;;4.30;;
32096;SDS011;18610;49.916;8.284;2023-02-28T11:43:53;6.40;;;4.00;;
32096;SDS011;18610;49.916;8.284;2023-02-28T11:46:30;7.28;;;4.10;;
32096;SDS011;18610;49.916;8.284;2023-02-28T11:49:06;7.10;;;4.32;;
32096;SDS011;18610;49.916;8.284;2023-02-28T11:51:47;6.32;;;3.75;;
32096;SDS011;18610;49.916;8.284;2023-02-28T11:54:26;8.02;;;4.53;;
32096;SDS011;18610;49.916;8.284;2023-02-28T11:57:19;5.93;;;3.83;;
32096;SDS011;18610;49.916;8.284;2023-02-28T12:02:28;6.35;;;3.45;;
32096;SDS011;18610;49.916;8.284;2023-02-28T12:05:10;7.32;;;3.75;;
32096;SDS011;18610;49.916;8.284;2023-02-28T12:07:49;7.30;;;3.65;;
32096;SDS011;18610;49.916;8.284;2023-02-28T12:10:30;6.13;;;3.70;;
32096;SDS011;18610;49.916;8.284;2023-02-28T12:13:06;7.57;;;4.22;;
32096;SDS011;18610;49.916;8.284;2023-02-28T12:15:59;7.10;;;4.10;;
32096;SDS011;18610;49.916;8.284;2023-02-28T12:18:48;6.72;;;3.63;;
32096;SDS011;18610;49.916;8.284;2023-02-28T12:21:25;6.00;;;3.35;;
32096;SDS011;18610;49.916;8.284;2023-02-28T12:24:11;6.00;;;3.63;;
32096;SDS011;18610;49.916;8.284;2023-02-28T12:26:51;9.00;;;4.57;;
32096;SDS011;18610;49.916;8.284;2023-02-28T12:29:21;5.82;;;3.83;;
32096;SDS011;18610;49.916;8.284;2023-02-28T12:31:54;10.82;;;4.20;;
32096;SDS011;18610;49.916;8.284;2023-02-28T12:34:27;6.78;;;3.97;;
32096;SDS011;18610;49.916;8.284;2023-02-28T12:36:58;7.65;;;3.85;;
32096;SDS011;18610;49.916;8.284;2023-02-28T12:39:30;6.50;;;4.25;;
32096;SDS011;18610;49.916;8.284;2023-02-28T12:42:03;15.37;;;4.47;;
32096;SDS011;18610;49.916;8.284;2023-02-28T12:44:34;7.18;;;4.10;;
32096;SDS011;18610;49.916;8.284;2023-02-28T12:49:37;8.18;;;4.68;;
32096;SDS011;18610;49.916;8.284;2023-02-28T12:52:08;12.93;;;4.45;;
32096;SDS011;18610;49.916;8.284;2023-02-28T12:54:44;6.55;;;3.90;;
32096;SDS011;18610;49.916;8.284;2023-02-28T12:57:18;9.07;;;4.07;;
32096;SDS011;18610;49.916;8.284;2023-02-28T12:59:50;9.00;;;4.22;;
32096;SDS011;18610;49.916;8.284;2023-02-28T13:02:32;7.60;;;4.10;;
32096;SDS011;18610;49.916;8.284;2023-02-28T13:08:17;7.60;;;3.85;;
32096;SDS011;18610;49.916;8.284;2023-02-28T13:11:23;6.32;;;4.00;;
32096;SDS011;18610;49.916;8.284;2023-02-28T13:13:57;4.78;;;3.45;;
32096;SDS011;18610;49.916;8.284;2023-02-28T13:16:26;6.78;;;3.95;;
32096;SDS011;18610;49.916;8.284;2023-02-28T13:18:56;7.90;;;3.83;;
32096;SDS011;18610;49.916;8.284;2023-02-28T13:21:41;11.30;;;3.78;;
32096;SDS011;18610;49.916;8.284;2023-02-28T13:24:10;9.35;;;4.28;;
32096;SDS011;18610;49.916;8.284;2023-02-28T13:33:24;7.38;;;4.60;;
32096;SDS011;18610;49.916;8.284;2023-02-28T13:36:06;4.90;;;3.88;;
32096;SDS011;18610;49.916;8.284;2023-02-28T13:38:49;8.45;;;4.43;;
32096;SDS011;18610;49.916;8.284;2023-02-28T13:44:08;7.55;;;4.07;;
32096;SDS011;18610;49.916;8.284;2023-02-28T13:46:38;6.95;;;4.05;;
32096;SDS011;18610;49.916;8.284;2023-02-28T13:49:47;5.85;;;4.35;;
32096;SDS011;18610;49.916;8.284;2023-02-28T13:52:16;8.88;;;4.90;;
32096;SDS011;18610;49.916;8.284;2023-02-28T13:54:51;9.05;;;5.60;;
32096;SDS011;18610;49.916;8.284;2023-02-28T13:57:44;6.75;;;4.70;;
32096;SDS011;18610;49.916;8.284;2023-02-28T14:00:30;11.00;;;5.05;;
32096;SDS011;18610;49.916;8.284;2023-02-28T14:03:10;7.53;;;4.70;;
32096;SDS011;18610;49.916;8.284;2023-02-28T14:05:45;7.90;;;4.30;;
32096;SDS011;18610;49.916;8.284;2023-02-28T14:08:13;8.00;;;4.63;;
32096;SDS011;18610;49.916;8.284;2023-02-28T14:10:44;8.15;;;4.95;;
32096;SDS011;18610;49.916;8.284;2023-02-28T14:13:14;9.07;;;4.30;;
32096;SDS011;18610;49.916;8.284;2023-02-28T14:15:58;8.27;;;4.75;;
32096;SDS011;18610;49.916;8.284;2023-02-28T14:18:28;7.72;;;5.28;;
32096;SDS011;18610;49.916;8.284;2023-02-28T14:20:58;10.00;;;4.90;;
32096;SDS011;18610;49.916;8.284;2023-02-28T14:23:43;8.57;;;5.22;;
32096;SDS011;18610;49.916;8.284;2023-02-28T14:26:30;10.25;;;4.90;;
32096;SDS011;18610;49.916;8.284;2023-02-28T14:29:24;6.22;;;3.95;;
32096;SDS011;18610;49.916;8.284;2023-02-28T14:34:41;7.95;;;4.97;;
32096;SDS011;18610;49.916;8.284;2023-02-28T14:37:16;11.07;;;5.18;;
32096;SDS011;18610;49.916;8.284;2023-02-28T14:39:49;8.02;;;4.68;;
32096;SDS011;18610;49.916;8.284;2023-02-28T14:42:27;9.30;;;5.10;;
32096;SDS011;18610;49.916;8.284;2023-02-28T14:44:56;9.30;;;5.40;;
32096;SDS011;18610;49.916;8.284;2023-02-28T14:47:25;6.95;;;4.88;;
32096;SDS011;18610;49.916;8.284;2023-02-28T14:49:54;9.68;;;4.85;;
32096;SDS011;18610;49.916;8.284;2023-02-28T14:52:21;7.32;;;5.40;;
32096;SDS011;18610;49.916;8.284;2023-02-28T14:54:51;8.70;;;4.57;;
32096;SDS011;18610;49.916;8.284;2023-02-28T14:57:23;9.98;;;5.57;;
32096;SDS011;18610;49.916;8.284;2023-02-28T14:59:58;9.10;;;5.43;;
32096;SDS011;18610;49.916;8.284;2023-02-28T15:02:30;8.70;;;4.95;;
32096;SDS011;18610;49.916;8.284;2023-02-28T15:05:00;9.90;;;4.97;;
32096;SDS011;18610;49.916;8.284;2023-02-28T15:07:36;13.77;;;5.57;;
32096;SDS011;18610;49.916;8.284;2023-02-28T15:10:10;8.88;;;5.32;;
32096;SDS011;18610;49.916;8.284;2023-02-28T15:12:42;10.38;;;6.13;;
32096;SDS011;18610;49.916;8.284;2023-02-28T15:15:15;7.43;;;4.78;;
32096;SDS011;18610;49.916;8.284;2023-02-28T15:17:45;11.25;;;5.53;;
32096;SDS011;18610;49.916;8.284;2023-02-28T15:20:15;11.52;;;5.63;;
32096;SDS011;18610;49.916;8.284;2023-02-28T15:22:44;6.65;;;5.07;;
32096;SDS011;18610;49.916;8.284;2023-02-28T15:25:13;7.03;;;4.78;;
32096;SDS011;18610;49.916;8.284;2023-02-28T15:27:44;7.57;;;4.95;;
32096;SDS011;18610;49.916;8.284;2023-02-28T15:30:15;6.32;;;4.78;;
32096;SDS011;18610;49.916;8.284;2023-02-28T15:32:45;11.45;;;5.78;;